Skip Navigation Links
NOAA logo - Click to go to the NOAA homepage
NOAA's National Weather Service
Alaska Aviation Weather Unit
  NWS logo - Click to go to the NWS homepage
Left Navbar Graphic     01 AKDT = 09 GMT

   
NOAA is celebrating 200 years of science, service, and stewardship. Visit the NOAA 200th celebration Web site to learn more.
USA.gov is the U.S. Government's official Web portal to all Federal, state and local government Web resources and services.
Facebook
NWS on Facebook

Important Change Regarding the AAWU Web Presence

 

Over the last several months, the AAWU has been working to navigate its webpages to a nationally supported server. Security, as well as other needs, have necessitated the change.  We have been given an extension for the site changeover while we diligently work at addressing feedback received. As of July 14, 2017, aawu.arh.noaa.gov will be discontinued. The new AAWU web address is weather.gov/aawu. It is now live and will run in-parallel with the old site until it is discontinued on July 14, 2017. Please continue to send any feedback or questions regarding the new webpages to nws.ar.aawu.webauthors@noaa.gov.  Thank you for your patience during this time of transition.
AAWU Home :: Display TAF Add Bookmark
METAR PAEG 190353Z AUTO 05004KT 10SM CLR 11/07 A2965 RMK AO2 SLP046
     T01110072 TSNO=

METAR PAEG 190453Z AUTO 00000KT 10SM CLR 08/06 A2966 RMK AO2 SLP051
     T00780056 TSNO=

METAR PAEG 190553Z AUTO 00000KT 10SM SCT085 05/04 A2969 RMK AO2 SLP060
     60002 T00500039 10167 20044 53009 TSNO=

METAR PAEG 190653Z AUTO 00000KT 10SM FEW060 OVC090 07/06 A2971 RMK
 AO2 SLP063 T00670056 TSNO=

METAR PAEG 190753Z AUTO 00000KT 10SM FEW050 BKN120 06/04 A2970 RMK AO2
     SLP062 T00560044 TSNO=

METAR PAEG 190853Z AUTO 19003KT 10SM BKN120 04/04 A2971 RMK AO2 SLP064
     T00440039 401671006 51006 TSNO=


NOAA's National Weather Service
Alaska Aviation Weather Unit
6930 Sand Lake Road
Anchorage, AK 99502-1845
Disclaimer
Credits
Glossary
Privacy Policy
About Us
Career Opportunities
Contact AAWU Internet Services Site last modified: April, 17th 2012